createdAt,value
2018-07-11T00:01:47.715Z,15.51
2018-07-11T00:04:16.840Z,15.49
2018-07-11T00:06:46.275Z,15.49
2018-07-11T00:09:15.114Z,15.47
2018-07-11T00:11:44.919Z,15.42
2018-07-11T00:14:13.755Z,15.36
2018-07-11T00:17:45.553Z,15.34
2018-07-11T00:20:15.043Z,15.33
2018-07-11T00:22:44.400Z,15.29
2018-07-11T00:25:13.927Z,15.27
2018-07-11T00:27:43.482Z,15.24
2018-07-11T00:30:12.695Z,15.21
2018-07-11T00:32:41.632Z,15.19
2018-07-11T00:35:10.514Z,15.18
2018-07-11T00:37:39.851Z,15.13
2018-07-11T00:40:08.628Z,15.11
2018-07-11T00:42:37.731Z,15.09
2018-07-11T00:45:06.674Z,15.04
2018-07-11T00:47:35.558Z,15.01
2018-07-11T00:50:04.672Z,14.95
2018-07-11T00:52:34.263Z,14.86
2018-07-11T00:55:03.125Z,14.85
2018-07-11T00:57:31.956Z,14.84
2018-07-11T01:00:01.300Z,14.82
2018-07-11T01:02:30.421Z,14.80
2018-07-11T01:05:03.227Z,14.80
2018-07-11T01:07:31.984Z,14.77
2018-07-11T01:10:01.254Z,14.77
2018-07-11T01:12:30.748Z,14.77
2018-07-11T01:14:59.627Z,14.75
2018-07-11T01:17:33.947Z,14.70
2018-07-11T01:20:03.091Z,14.66
2018-07-11T01:22:32.262Z,14.63
2018-07-11T01:25:01.547Z,14.59
2018-07-11T01:27:30.304Z,14.56
2018-07-11T01:29:59.726Z,14.56
2018-07-11T01:32:28.613Z,14.51
2018-07-11T01:34:58.245Z,14.48
2018-07-11T01:37:27.130Z,14.43
2018-07-11T01:39:56.772Z,14.39
2018-07-11T01:42:25.512Z,14.37
2018-07-11T01:44:54.800Z,14.37
2018-07-11T01:47:23.584Z,14.33
2018-07-11T01:49:52.726Z,14.31
2018-07-11T01:52:32.737Z,14.28
2018-07-11T01:55:01.825Z,14.27
2018-07-11T01:57:30.618Z,14.29
2018-07-11T02:00:00.024Z,14.23
2018-07-11T02:02:28.770Z,14.21
2018-07-11T02:04:57.518Z,14.16
2018-07-11T02:07:26.584Z,14.11
2018-07-11T02:09:55.563Z,14.08
2018-07-11T02:12:24.876Z,14.02
2018-07-11T02:14:59.200Z,13.99
2018-07-11T02:17:28.251Z,13.95
2018-07-11T02:19:57.276Z,13.94
2018-07-11T02:22:26.388Z,13.91
2018-07-11T02:24:55.681Z,13.90
2018-07-11T02:27:24.436Z,13.90
2018-07-11T02:29:53.177Z,13.90
2018-07-11T02:32:21.963Z,13.89
2018-07-11T02:34:50.801Z,13.83
2018-07-11T02:37:20.907Z,13.77
2018-07-11T02:39:50.088Z,13.74
2018-07-11T02:42:19.447Z,13.74
2018-07-11T02:44:48.220Z,13.76
2018-07-11T02:47:22.603Z,13.76
2018-07-11T02:49:51.384Z,13.76
2018-07-11T02:52:20.164Z,13.77
2018-07-11T02:54:49.271Z,13.78
2018-07-11T02:57:18.009Z,13.79
2018-07-11T02:59:47.388Z,13.79
2018-07-11T03:02:16.831Z,13.80
2018-07-11T03:04:46.477Z,13.81
2018-07-11T03:07:15.746Z,13.83
2018-07-11T03:09:44.483Z,13.83
2018-07-11T03:12:13.252Z,13.81
2018-07-11T03:14:44.846Z,13.82
2018-07-11T03:17:14.220Z,13.80
2018-07-11T03:19:43.217Z,13.80
2018-07-11T03:22:12.161Z,13.75
2018-07-11T03:24:42.013Z,13.74
2018-07-11T03:27:11.172Z,13.74
2018-07-11T03:29:40.222Z,13.72
2018-07-11T03:32:09.467Z,13.70
2018-07-11T03:34:38.503Z,13.68
2018-07-11T03:37:08.034Z,13.66
2018-07-11T03:39:36.848Z,13.62
2018-07-11T03:42:05.696Z,13.58
2018-07-11T03:44:34.848Z,13.53
2018-07-11T03:47:04.181Z,13.48
2018-07-11T03:49:33.608Z,13.46
2018-07-11T03:52:02.680Z,13.43
2018-07-11T03:54:32.466Z,13.39
2018-07-11T03:57:01.499Z,13.37
2018-07-11T03:59:30.992Z,13.36
2018-07-11T04:01:59.860Z,13.35
2018-07-11T04:04:29.097Z,13.35
2018-07-11T04:06:57.930Z,13.35
2018-07-11T04:09:26.975Z,13.34
2018-07-11T04:11:56.172Z,13.35
2018-07-11T04:14:25.399Z,13.34
2018-07-11T04:16:54.555Z,13.32
2018-07-11T04:19:23.518Z,13.28
2018-07-11T04:21:53.130Z,13.29
2018-07-11T04:24:21.999Z,13.33
2018-07-11T04:26:51.280Z,13.36
2018-07-11T04:29:20.826Z,13.38
2018-07-11T04:31:49.609Z,13.38
2018-07-11T04:34:18.447Z,13.41
2018-07-11T04:36:47.688Z,13.44
2018-07-11T04:39:16.968Z,13.48
2018-07-11T04:41:45.760Z,13.53
2018-07-11T04:44:14.938Z,13.60
2018-07-11T04:46:44.555Z,13.66
2018-07-11T04:49:13.987Z,13.74
2018-07-11T04:51:43.128Z,13.80
2018-07-11T04:54:11.899Z,13.87
2018-07-11T04:56:41.021Z,13.94
2018-07-11T04:59:09.857Z,13.99
2018-07-11T05:01:39.234Z,14.05
2018-07-11T05:04:08.389Z,14.10
2018-07-11T05:06:37.486Z,14.16
2018-07-11T05:09:07.209Z,14.24
2018-07-11T05:11:36.013Z,14.32
2018-07-11T05:14:05.216Z,14.41
2018-07-11T05:16:34.342Z,14.49
2018-07-11T05:19:03.467Z,14.55
2018-07-11T05:21:32.296Z,14.63
2018-07-11T05:24:01.707Z,14.70
2018-07-11T05:26:30.849Z,14.76
2018-07-11T05:29:00.254Z,14.83
2018-07-11T05:31:29.116Z,14.91
2018-07-11T05:33:57.936Z,14.98
2018-07-11T05:36:27.340Z,15.03
2018-07-11T05:38:56.455Z,15.11
2018-07-11T05:41:25.549Z,15.19
2018-07-11T05:43:54.591Z,15.25
2018-07-11T05:46:24.147Z,15.32
2018-07-11T05:48:53.216Z,15.37
2018-07-11T05:51:22.304Z,15.44
2018-07-11T05:53:51.958Z,15.51
2018-07-11T05:56:21.345Z,15.57
2018-07-11T05:58:50.155Z,15.62
2018-07-11T06:01:19.272Z,15.64
2018-07-11T06:03:48.301Z,15.70
2018-07-11T06:06:17.510Z,15.75
2018-07-11T06:08:46.656Z,15.85
2018-07-11T06:11:22.522Z,15.97
2018-07-11T06:13:52.719Z,16.04
2018-07-11T06:16:22.036Z,16.07
2018-07-11T06:18:51.167Z,16.11
2018-07-11T06:21:21.010Z,16.20
2018-07-11T06:23:50.147Z,16.27
2018-07-11T06:26:19.516Z,16.33
2018-07-11T06:28:48.856Z,16.39
2018-07-11T06:31:17.960Z,16.46
2018-07-11T06:33:47.098Z,16.58
2018-07-11T06:36:16.202Z,16.66
2018-07-11T06:38:45.551Z,16.74
2018-07-11T06:41:14.431Z,16.82
2018-07-11T06:43:43.362Z,16.88
2018-07-11T06:46:12.170Z,16.94
2018-07-11T06:48:41.202Z,17.01
2018-07-11T06:51:10.128Z,17.04
2018-07-11T06:53:38.919Z,17.09
2018-07-11T06:56:08.062Z,17.17
2018-07-11T06:58:37.374Z,17.19
2018-07-11T07:01:06.188Z,17.26
2018-07-11T07:03:35.449Z,17.33
2018-07-11T07:06:04.529Z,17.41
2018-07-11T07:08:33.606Z,17.47
2018-07-11T07:11:02.875Z,17.52
2018-07-11T07:13:31.616Z,17.58
2018-07-11T07:16:00.705Z,17.69
2018-07-11T07:18:30.051Z,17.78
2018-07-11T07:20:59.963Z,17.90
2018-07-11T07:23:28.697Z,17.99
2018-07-11T07:25:57.815Z,18.12
2018-07-11T07:28:26.630Z,18.22
2018-07-11T07:30:55.665Z,18.35
2018-07-11T07:33:24.895Z,18.47
2018-07-11T07:35:53.649Z,18.75
2018-07-11T07:38:22.691Z,19.01
2018-07-11T07:40:51.722Z,19.19
2018-07-11T07:43:21.070Z,19.37
2018-07-11T07:45:50.118Z,19.40
2018-07-11T07:48:18.951Z,19.48
2018-07-11T07:50:49.372Z,19.49
2018-07-11T07:53:18.572Z,19.46
2018-07-11T07:55:47.684Z,19.44
2018-07-11T07:58:16.667Z,19.45
2018-07-11T08:00:45.473Z,19.48
2018-07-11T08:03:14.753Z,19.51
2018-07-11T08:05:43.893Z,19.51
2018-07-11T08:08:12.967Z,19.51
2018-07-11T08:10:42.261Z,19.55
2018-07-11T08:13:11.486Z,19.61
2018-07-11T08:15:40.587Z,19.59
2018-07-11T08:18:09.637Z,19.65
2018-07-11T08:20:38.636Z,19.65
2018-07-11T08:23:19.494Z,19.60
2018-07-11T08:26:01.349Z,19.55
2018-07-11T08:30:01.368Z,19.52
2018-07-11T08:32:57.455Z,19.46
2018-07-11T08:36:14.481Z,19.48
2018-07-11T08:41:31.266Z,19.52
2018-07-11T08:48:22.593Z,19.53
2018-07-11T08:52:05.180Z,19.62
2018-07-11T08:55:45.413Z,19.64
2018-07-11T08:58:25.360Z,19.68
2018-07-11T09:01:05.381Z,19.70
2018-07-11T09:03:51.526Z,19.71
2018-07-11T09:09:31.467Z,19.78
2018-07-11T09:14:16.739Z,19.89
2018-07-11T09:17:57.021Z,19.99
2018-07-11T09:20:48.387Z,20.10
2018-07-11T09:25:32.172Z,20.19
2018-07-11T09:28:00.975Z,20.22
2018-07-11T09:30:30.312Z,20.22
2018-07-11T09:33:03.748Z,20.21
2018-07-11T09:35:33.062Z,20.26
2018-07-11T09:38:02.460Z,20.36
2018-07-11T09:40:32.184Z,20.46
2018-07-11T09:43:02.667Z,20.61
2018-07-11T09:45:31.731Z,20.82
2018-07-11T09:48:00.584Z,20.97
2018-07-11T09:50:29.481Z,21.18
2018-07-11T09:52:58.736Z,21.24
2018-07-11T09:55:27.476Z,21.26
2018-07-11T09:57:56.269Z,21.27
2018-07-11T10:00:30.140Z,21.25
2018-07-11T10:02:58.926Z,21.23
2018-07-11T10:05:27.705Z,21.35
2018-07-11T10:07:56.812Z,21.34
2018-07-11T10:10:25.948Z,21.30
2018-07-11T10:12:55.304Z,21.23
2018-07-11T10:15:24.021Z,21.17
2018-07-11T10:17:53.451Z,21.14
2018-07-11T10:20:22.255Z,21.40
2018-07-11T10:22:51.160Z,21.76
2018-07-11T10:25:20.567Z,22.05
2018-07-11T10:27:59.174Z,22.06
2018-07-11T10:30:28.123Z,22.11
2018-07-11T10:32:57.472Z,22.40
2018-07-11T10:35:26.501Z,22.64
2018-07-11T10:37:55.353Z,22.78
2018-07-11T10:40:24.707Z,22.99
2018-07-11T10:42:53.765Z,23.06
2018-07-11T10:45:22.509Z,23.07
2018-07-11T10:47:51.539Z,23.06
2018-07-11T10:50:20.884Z,23.03
2018-07-11T10:52:49.883Z,22.91
2018-07-11T10:55:18.705Z,22.77
2018-07-11T10:57:48.136Z,22.96
2018-07-11T11:00:35.965Z,23.13
2018-07-11T11:02:51.875Z,23.48
2018-07-11T11:05:21.145Z,23.79
2018-07-11T11:07:51.464Z,24.02
2018-07-11T11:10:20.579Z,24.30
2018-07-11T11:12:49.525Z,24.24
2018-07-11T11:15:18.418Z,24.02
2018-07-11T11:17:47.431Z,23.91
2018-07-11T11:20:16.468Z,23.83
2018-07-11T11:22:45.246Z,23.78
2018-07-11T11:25:14.377Z,23.81
2018-07-11T11:27:43.111Z,23.87
2018-07-11T11:30:12.623Z,23.89
2018-07-11T11:32:41.793Z,23.80
2018-07-11T11:35:11.332Z,23.72
2018-07-11T11:37:40.616Z,23.64
2018-07-11T11:40:10.134Z,23.61
2018-07-11T11:42:39.516Z,23.43
2018-07-11T11:45:08.346Z,23.39
2018-07-11T11:47:37.077Z,23.37
2018-07-11T11:50:06.430Z,23.31
2018-07-11T11:52:35.984Z,23.19
2018-07-11T11:55:05.032Z,23.16
2018-07-11T11:57:34.118Z,23.12
2018-07-11T12:00:03.143Z,23.17
2018-07-11T12:02:31.893Z,23.11
2018-07-11T12:05:01.342Z,23.09
2018-07-11T12:07:30.413Z,22.96
2018-07-11T12:09:59.519Z,22.91
2018-07-11T12:12:28.684Z,22.85
2018-07-11T12:14:58.027Z,22.75
2018-07-11T12:17:27.480Z,22.74
2018-07-11T12:19:56.616Z,22.73
2018-07-11T12:22:26.771Z,22.67
2018-07-11T12:24:55.981Z,22.62
2018-07-11T12:27:25.242Z,22.59
2018-07-11T12:29:54.322Z,22.50
2018-07-11T12:32:23.468Z,22.49
2018-07-11T12:34:52.462Z,22.46
2018-07-11T12:37:21.720Z,22.54
2018-07-11T12:39:51.963Z,22.59
2018-07-11T12:42:20.831Z,22.59
2018-07-11T12:44:49.599Z,22.56
2018-07-11T12:47:24.000Z,22.51
2018-07-11T12:49:53.067Z,22.37
2018-07-11T12:52:21.849Z,22.32
2018-07-11T12:54:51.121Z,22.23
2018-07-11T12:57:19.936Z,22.21
2018-07-11T12:59:49.304Z,22.17
2018-07-11T13:02:19.315Z,22.09
2018-07-11T13:04:48.407Z,22.06
2018-07-11T13:07:17.149Z,22.07
2018-07-11T13:09:46.749Z,22.06
2018-07-11T13:12:15.503Z,22.04
2018-07-11T13:14:44.239Z,22.04
2018-07-11T13:17:13.217Z,22.10
2018-07-11T13:19:41.997Z,22.15
2018-07-11T13:22:10.797Z,22.21
2018-07-11T13:24:40.134Z,22.25
2018-07-11T13:27:09.505Z,22.27
2018-07-11T13:29:38.271Z,22.28
2018-07-11T13:32:06.999Z,22.31
2018-07-11T13:34:36.487Z,22.32
2018-07-11T13:37:05.546Z,22.37
2018-07-11T13:39:34.535Z,22.31
2018-07-11T13:42:03.783Z,22.30
2018-07-11T13:44:32.560Z,22.30
2018-07-11T13:47:04.386Z,22.39
2018-07-11T13:49:33.369Z,22.46
2018-07-11T13:52:02.579Z,22.59
2018-07-11T13:54:32.021Z,22.69
2018-07-11T13:57:00.787Z,22.72
2018-07-11T13:59:29.518Z,22.77
2018-07-11T14:01:58.579Z,22.83
2018-07-11T14:04:27.627Z,22.83
2018-07-11T14:06:57.066Z,22.84
2018-07-11T14:09:25.875Z,22.85
2018-07-11T14:11:55.173Z,22.79
2018-07-11T14:14:23.935Z,22.83
2018-07-11T14:16:52.679Z,22.86
2018-07-11T14:19:21.827Z,22.84
2018-07-11T14:21:50.603Z,22.87
2018-07-11T14:24:19.958Z,22.90
2018-07-11T14:26:48.937Z,22.98
2018-07-11T14:29:17.905Z,22.93
2018-07-11T14:31:46.648Z,22.88
2018-07-11T14:34:15.904Z,22.78
2018-07-11T14:36:44.684Z,22.71
2018-07-11T14:39:14.026Z,22.73
2018-07-11T14:41:42.772Z,22.62
2018-07-11T14:44:12.091Z,22.57
2018-07-11T14:46:40.840Z,22.51
2018-07-11T14:49:09.585Z,22.53
2018-07-11T14:51:38.649Z,22.63
2018-07-11T14:54:07.839Z,22.70
2018-07-11T14:56:37.195Z,22.67
2018-07-11T14:59:06.131Z,22.63
2018-07-11T15:01:34.865Z,22.61
2018-07-11T15:04:03.592Z,22.58
2018-07-11T15:06:32.721Z,22.62
2018-07-11T15:09:01.941Z,22.64
2018-07-11T15:11:30.539Z,22.71
2018-07-11T15:13:59.591Z,22.78
2018-07-11T15:16:28.663Z,22.92
2018-07-11T15:18:57.739Z,23.09
2018-07-11T15:21:27.509Z,23.43
2018-07-11T15:23:56.519Z,23.64
2018-07-11T15:26:26.135Z,23.84
2018-07-11T15:28:55.068Z,23.95
2018-07-11T15:31:24.070Z,24.13
2018-07-11T15:33:54.783Z,24.19
2018-07-11T15:36:23.534Z,24.28
2018-07-11T15:38:52.334Z,24.28
2018-07-11T15:41:21.082Z,24.28
2018-07-11T15:43:49.820Z,24.39
2018-07-11T15:46:18.607Z,24.35
2018-07-11T15:48:48.087Z,24.18
2018-07-11T15:51:16.831Z,24.08
2018-07-11T15:53:45.616Z,24.02
2018-07-11T15:56:14.349Z,23.93
2018-07-11T15:58:44.729Z,23.82
2018-07-11T16:01:13.834Z,23.87
2018-07-11T16:03:47.111Z,24.02
2018-07-11T16:06:17.460Z,24.10
2018-07-11T16:08:48.842Z,24.19
2018-07-11T16:11:17.708Z,24.26
2018-07-11T16:13:46.631Z,24.21
2018-07-11T16:16:15.537Z,24.09
2018-07-11T16:18:44.319Z,24.05
2018-07-11T16:21:13.602Z,24.05
2018-07-11T16:23:42.956Z,24.05
2018-07-11T16:26:11.720Z,24.18
2018-07-11T16:28:41.218Z,24.22
2018-07-11T16:31:10.044Z,24.25
2018-07-11T16:33:39.055Z,24.11
2018-07-11T16:36:08.147Z,23.98
2018-07-11T16:38:37.466Z,23.83
2018-07-11T16:41:07.071Z,23.63
2018-07-11T16:43:36.682Z,23.40
2018-07-11T16:46:05.795Z,23.32
2018-07-11T16:48:34.559Z,23.27
2018-07-11T16:51:03.343Z,23.23
2018-07-11T16:53:32.888Z,23.22
2018-07-11T16:56:01.869Z,23.18
2018-07-11T16:58:33.659Z,23.17
2018-07-11T17:01:02.679Z,23.12
2018-07-11T17:03:33.051Z,23.00
2018-07-11T17:06:06.104Z,22.90
2018-07-11T17:08:37.243Z,22.75
2018-07-11T17:11:14.266Z,22.68
2018-07-11T17:13:47.533Z,22.65
2018-07-11T17:16:16.590Z,22.63
2018-07-11T17:18:50.791Z,22.62
2018-07-11T17:21:31.265Z,22.54
2018-07-11T17:24:05.312Z,22.45
2018-07-11T17:26:34.132Z,22.51
2018-07-11T17:29:04.111Z,22.44
2018-07-11T17:31:34.762Z,22.41
2018-07-11T17:34:03.754Z,22.42
2018-07-11T17:36:34.866Z,22.37
2018-07-11T17:39:05.512Z,22.37
2018-07-11T17:41:35.828Z,22.35
2018-07-11T17:44:04.736Z,22.24
2018-07-11T17:46:37.104Z,22.22
2018-07-11T17:49:14.919Z,22.24
2018-07-11T17:51:47.803Z,22.20
2018-07-11T17:54:18.085Z,22.12
2018-07-11T17:56:57.218Z,22.10
2018-07-11T17:59:42.250Z,22.12
2018-07-11T18:02:21.795Z,22.01
2018-07-11T18:05:59.008Z,21.92
2018-07-11T18:08:35.774Z,21.92
2018-07-11T18:11:05.257Z,21.90
2018-07-11T18:13:39.063Z,21.88
2018-07-11T18:16:17.615Z,21.92
2018-07-11T18:20:31.266Z,21.93
2018-07-11T18:23:11.758Z,21.96
2018-07-11T18:25:50.162Z,21.93
2018-07-11T18:28:30.142Z,21.90
2018-07-11T18:31:46.796Z,21.87
2018-07-11T18:35:28.526Z,21.85
2018-07-11T18:39:04.889Z,21.85
2018-07-11T18:41:38.109Z,21.85
2018-07-11T18:45:26.724Z,21.83
2018-07-11T18:48:09.535Z,21.75
2018-07-11T18:50:46.025Z,21.71
2018-07-11T18:54:13.263Z,21.69
2018-07-11T18:57:08.306Z,21.63
2018-07-11T19:00:58.645Z,21.61
2018-07-11T19:03:44.009Z,21.56
2018-07-11T19:06:19.016Z,21.54
2018-07-11T19:09:02.743Z,21.53
2018-07-11T19:11:59.837Z,21.51
2018-07-11T19:15:35.335Z,21.49
2018-07-11T19:18:14.356Z,21.46
2018-07-11T19:20:56.177Z,21.37
2018-07-11T19:23:38.007Z,21.31
2018-07-11T19:26:20.975Z,21.30
2018-07-11T19:28:54.975Z,21.26
2018-07-11T19:32:33.884Z,21.19
2018-07-11T19:35:50.402Z,21.10
2018-07-11T19:38:41.672Z,21.06
2018-07-11T19:41:21.469Z,21.00
2018-07-11T19:44:56.167Z,20.90
2018-07-11T19:47:51.234Z,20.86
2018-07-11T19:51:38.486Z,20.82
2018-07-11T19:56:26.605Z,20.71
2018-07-11T19:58:55.938Z,20.59
2018-07-11T20:01:25.581Z,20.52
2018-07-11T20:03:54.794Z,20.47
2018-07-11T20:06:23.716Z,20.43
2018-07-11T20:08:53.268Z,20.38
2018-07-11T20:11:22.751Z,20.37
2018-07-11T20:13:54.256Z,20.29
2018-07-11T20:16:23.682Z,20.22
2018-07-11T20:18:52.848Z,20.14
2018-07-11T20:21:23.584Z,20.09
2018-07-11T20:23:52.610Z,20.03
2018-07-11T20:26:21.801Z,19.99
2018-07-11T20:28:52.754Z,19.98
2018-07-11T20:31:21.544Z,19.95
2018-07-11T20:33:50.539Z,19.90
2018-07-11T20:36:19.891Z,19.80
2018-07-11T20:38:48.680Z,19.75
2018-07-11T20:41:17.705Z,19.70
2018-07-11T20:43:47.030Z,19.64
2018-07-11T20:46:16.599Z,19.55
2018-07-11T20:48:46.101Z,19.43
2018-07-11T20:51:15.874Z,19.42
2018-07-11T20:53:45.112Z,19.37
2018-07-11T20:56:13.971Z,19.34
2018-07-11T20:58:53.905Z,19.27
2018-07-11T21:01:33.761Z,19.24
2018-07-11T21:04:23.754Z,19.20
2018-07-11T21:07:31.481Z,19.12
2018-07-11T21:10:11.447Z,19.01
2018-07-11T21:12:47.565Z,18.93
2018-07-11T21:15:25.423Z,18.90
2018-07-11T21:18:07.012Z,18.87
2018-07-11T21:20:36.124Z,18.86
2018-07-11T21:23:05.692Z,18.82
2018-07-11T21:25:35.403Z,18.77
2018-07-11T21:28:04.604Z,18.76
2018-07-11T21:30:33.483Z,18.72
2018-07-11T21:33:03.000Z,18.69
2018-07-11T21:35:32.240Z,18.65
2018-07-11T21:38:01.649Z,18.60
2018-07-11T21:40:31.219Z,18.52
2018-07-11T21:43:00.181Z,18.49
2018-07-11T21:45:30.020Z,18.42
2018-07-11T21:47:59.208Z,18.34
2018-07-11T21:50:28.179Z,18.30
2018-07-11T21:52:57.444Z,18.27
2018-07-11T21:55:26.706Z,18.25
2018-07-11T21:57:55.613Z,18.21
2018-07-11T22:00:33.990Z,18.21
2018-07-11T22:03:03.629Z,18.16
2018-07-11T22:05:33.680Z,18.18
2018-07-11T22:08:03.149Z,18.15
2018-07-11T22:10:32.052Z,18.14
2018-07-11T22:13:01.376Z,18.09
2018-07-11T22:15:30.744Z,18.02
2018-07-11T22:18:11.202Z,17.99
2018-07-11T22:20:38.896Z,17.97
2018-07-11T22:23:06.616Z,17.93
2018-07-11T22:25:34.569Z,17.87
2018-07-11T22:28:02.592Z,17.82
2018-07-11T22:30:30.574Z,17.77
2018-07-11T22:32:58.515Z,17.74
2018-07-11T22:35:26.164Z,17.72
2018-07-11T22:37:53.729Z,17.67
2018-07-11T22:40:21.608Z,17.61
2018-07-11T22:42:50.217Z,17.57
2018-07-11T22:45:17.785Z,17.55
2018-07-11T22:47:45.608Z,17.58
2018-07-11T22:50:13.465Z,17.57
2018-07-11T22:52:41.709Z,17.55
2018-07-11T22:55:09.629Z,17.51
2018-07-11T22:57:37.203Z,17.44
2018-07-11T23:00:05.112Z,17.38
2018-07-11T23:02:32.706Z,17.35
2018-07-11T23:05:00.271Z,17.31
2018-07-11T23:07:27.883Z,17.30
2018-07-11T23:09:55.959Z,17.26
2018-07-11T23:12:23.549Z,17.25
2018-07-11T23:14:51.139Z,17.21
2018-07-11T23:17:23.900Z,17.20
2018-07-11T23:19:51.762Z,17.17
2018-07-11T23:22:19.652Z,17.15
2018-07-11T23:24:47.512Z,17.14
2018-07-11T23:27:15.699Z,17.10
2018-07-11T23:29:43.246Z,17.02
2018-07-11T23:32:10.771Z,17.02
2018-07-11T23:34:38.673Z,17.00
2018-07-11T23:37:06.514Z,16.99
2018-07-11T23:39:34.070Z,16.98
2018-07-11T23:42:01.624Z,16.92
2018-07-11T23:44:29.835Z,16.79
2018-07-11T23:46:57.704Z,16.66
2018-07-11T23:49:25.234Z,16.65
2018-07-11T23:51:53.251Z,16.60
2018-07-11T23:54:20.827Z,16.55
2018-07-11T23:56:49.003Z,16.51
2018-07-11T23:59:16.548Z,16.50
